sensor_id;sensor_type;location;lat;lon;timestamp;P1;durP1;ratioP1;P2;durP2;ratioP2
4102;SDS011;2065;49.790;9.620;2023-05-07T00:01:43;6.33;;;5.27;;
4102;SDS011;2065;49.790;9.620;2023-05-07T00:04:10;10.50;;;5.70;;
4102;SDS011;2065;49.790;9.620;2023-05-07T00:06:37;5.60;;;4.87;;
4102;SDS011;2065;49.790;9.620;2023-05-07T00:09:05;5.20;;;4.70;;
4102;SDS011;2065;49.790;9.620;2023-05-07T00:11:33;6.40;;;5.70;;
4102;SDS011;2065;49.790;9.620;2023-05-07T00:14:00;7.10;;;5.20;;
4102;SDS011;2065;49.790;9.620;2023-05-07T00:16:27;5.70;;;5.20;;
4102;SDS011;2065;49.790;9.620;2023-05-07T00:18:55;5.40;;;4.90;;
4102;SDS011;2065;49.790;9.620;2023-05-07T00:21:22;6.60;;;5.00;;
4102;SDS011;2065;49.790;9.620;2023-05-07T00:23:51;5.33;;;4.80;;
4102;SDS011;2065;49.790;9.620;2023-05-07T00:26:18;5.00;;;4.60;;
4102;SDS011;2065;49.790;9.620;2023-05-07T00:28:47;6.40;;;5.60;;
4102;SDS011;2065;49.790;9.620;2023-05-07T00:31:14;6.10;;;5.07;;
4102;SDS011;2065;49.790;9.620;2023-05-07T00:33:41;10.07;;;5.53;;
4102;SDS011;2065;49.790;9.620;2023-05-07T00:36:09;6.57;;;5.60;;
4102;SDS011;2065;49.790;9.620;2023-05-07T00:38:36;5.23;;;4.37;;
4102;SDS011;2065;49.790;9.620;2023-05-07T00:41:03;6.07;;;5.30;;
4102;SDS011;2065;49.790;9.620;2023-05-07T00:43:30;7.43;;;5.10;;
4102;SDS011;2065;49.790;9.620;2023-05-07T00:45:58;6.87;;;5.17;;
4102;SDS011;2065;49.790;9.620;2023-05-07T00:48:25;5.80;;;5.10;;
4102;SDS011;2065;49.790;9.620;2023-05-07T00:50:53;5.17;;;4.67;;
4102;SDS011;2065;49.790;9.620;2023-05-07T00:53:22;6.93;;;5.77;;
4102;SDS011;2065;49.790;9.620;2023-05-07T00:55:49;5.40;;;4.10;;
4102;SDS011;2065;49.790;9.620;2023-05-07T00:58:16;7.47;;;4.13;;
4102;SDS011;2065;49.790;9.620;2023-05-07T01:00:43;6.13;;;4.83;;
4102;SDS011;2065;49.790;9.620;2023-05-07T01:03:10;4.57;;;4.17;;
4102;SDS011;2065;49.790;9.620;2023-05-07T01:05:38;5.50;;;3.90;;
4102;SDS011;2065;49.790;9.620;2023-05-07T01:08:05;3.83;;;3.53;;
4102;SDS011;2065;49.790;9.620;2023-05-07T01:10:34;9.10;;;4.00;;
4102;SDS011;2065;49.790;9.620;2023-05-07T01:13:02;3.93;;;3.63;;
4102;SDS011;2065;49.790;9.620;2023-05-07T01:15:30;5.27;;;3.83;;
4102;SDS011;2065;49.790;9.620;2023-05-07T01:17:58;3.33;;;3.03;;
4102;SDS011;2065;49.790;9.620;2023-05-07T01:20:31;3.50;;;3.00;;
4102;SDS011;2065;49.790;9.620;2023-05-07T01:23:00;3.03;;;2.83;;
4102;SDS011;2065;49.790;9.620;2023-05-07T01:25:28;3.50;;;3.20;;
4102;SDS011;2065;49.790;9.620;2023-05-07T01:27:58;3.60;;;3.30;;
4102;SDS011;2065;49.790;9.620;2023-05-07T01:30:29;3.23;;;2.93;;
4102;SDS011;2065;49.790;9.620;2023-05-07T01:32:58;5.80;;;3.40;;
4102;SDS011;2065;49.790;9.620;2023-05-07T01:35:32;5.20;;;3.43;;
4102;SDS011;2065;49.790;9.620;2023-05-07T01:38:03;3.90;;;3.60;;
4102;SDS011;2065;49.790;9.620;2023-05-07T01:40:31;4.50;;;3.57;;
4102;SDS011;2065;49.790;9.620;2023-05-07T01:42:59;6.63;;;3.90;;
4102;SDS011;2065;49.790;9.620;2023-05-07T01:45:26;4.30;;;4.00;;
4102;SDS011;2065;49.790;9.620;2023-05-07T01:47:54;6.10;;;3.70;;
4102;SDS011;2065;49.790;9.620;2023-05-07T01:50:22;4.40;;;3.83;;
4102;SDS011;2065;49.790;9.620;2023-05-07T01:52:50;4.40;;;4.00;;
4102;SDS011;2065;49.790;9.620;2023-05-07T01:55:19;4.63;;;3.83;;
4102;SDS011;2065;49.790;9.620;2023-05-07T01:57:47;3.90;;;3.60;;
4102;SDS011;2065;49.790;9.620;2023-05-07T02:00:15;3.80;;;3.50;;
4102;SDS011;2065;49.790;9.620;2023-05-07T02:02:44;5.00;;;4.23;;
4102;SDS011;2065;49.790;9.620;2023-05-07T02:05:23;4.20;;;3.77;;
4102;SDS011;2065;49.790;9.620;2023-05-07T02:07:57;4.93;;;4.53;;
4102;SDS011;2065;49.790;9.620;2023-05-07T02:10:28;4.17;;;3.83;;
4102;SDS011;2065;49.790;9.620;2023-05-07T02:12:55;8.53;;;4.00;;
4102;SDS011;2065;49.790;9.620;2023-05-07T02:15:22;4.30;;;3.87;;
4102;SDS011;2065;49.790;9.620;2023-05-07T02:17:58;4.80;;;4.20;;
4102;SDS011;2065;49.790;9.620;2023-05-07T02:20:27;3.97;;;3.57;;
4102;SDS011;2065;49.790;9.620;2023-05-07T02:22:54;4.50;;;4.10;;
4102;SDS011;2065;49.790;9.620;2023-05-07T02:25:21;4.50;;;3.90;;
4102;SDS011;2065;49.790;9.620;2023-05-07T02:27:50;3.77;;;3.47;;
4102;SDS011;2065;49.790;9.620;2023-05-07T02:30:19;4.00;;;3.70;;
4102;SDS011;2065;49.790;9.620;2023-05-07T02:32:49;4.30;;;4.00;;
4102;SDS011;2065;49.790;9.620;2023-05-07T02:35:16;4.30;;;3.90;;
4102;SDS011;2065;49.790;9.620;2023-05-07T02:37:43;4.43;;;3.83;;
4102;SDS011;2065;49.790;9.620;2023-05-07T02:40:11;4.07;;;3.30;;
4102;SDS011;2065;49.790;9.620;2023-05-07T02:42:39;4.00;;;3.27;;
4102;SDS011;2065;49.790;9.620;2023-05-07T02:45:08;3.50;;;2.73;;
4102;SDS011;2065;49.790;9.620;2023-05-07T02:47:37;4.07;;;3.70;;
4102;SDS011;2065;49.790;9.620;2023-05-07T02:50:05;3.37;;;3.17;;
4102;SDS011;2065;49.790;9.620;2023-05-07T02:52:33;4.53;;;3.10;;
4102;SDS011;2065;49.790;9.620;2023-05-07T02:55:00;4.00;;;3.70;;
4102;SDS011;2065;49.790;9.620;2023-05-07T02:57:27;7.90;;;4.30;;
4102;SDS011;2065;49.790;9.620;2023-05-07T02:59:55;4.90;;;4.40;;
4102;SDS011;2065;49.790;9.620;2023-05-07T03:02:25;5.37;;;4.70;;
4102;SDS011;2065;49.790;9.620;2023-05-07T03:04:52;4.80;;;4.30;;
4102;SDS011;2065;49.790;9.620;2023-05-07T03:07:19;17.73;;;3.83;;
4102;SDS011;2065;49.790;9.620;2023-05-07T03:09:46;4.47;;;3.77;;
4102;SDS011;2065;49.790;9.620;2023-05-07T03:12:13;4.27;;;3.83;;
4102;SDS011;2065;49.790;9.620;2023-05-07T03:14:40;5.00;;;3.47;;
4102;SDS011;2065;49.790;9.620;2023-05-07T03:17:07;5.17;;;4.70;;
4102;SDS011;2065;49.790;9.620;2023-05-07T03:19:36;4.50;;;4.10;;
4102;SDS011;2065;49.790;9.620;2023-05-07T03:22:03;4.40;;;4.00;;
4102;SDS011;2065;49.790;9.620;2023-05-07T03:24:30;3.70;;;3.50;;
4102;SDS011;2065;49.790;9.620;2023-05-07T03:26:57;4.47;;;4.10;;
4102;SDS011;2065;49.790;9.620;2023-05-07T03:29:24;3.90;;;3.50;;
4102;SDS011;2065;49.790;9.620;2023-05-07T03:31:51;3.10;;;2.90;;
4102;SDS011;2065;49.790;9.620;2023-05-07T03:34:18;5.10;;;3.60;;
4102;SDS011;2065;49.790;9.620;2023-05-07T03:36:48;3.30;;;3.00;;
4102;SDS011;2065;49.790;9.620;2023-05-07T03:39:16;4.53;;;3.23;;
4102;SDS011;2065;49.790;9.620;2023-05-07T03:41:43;4.00;;;3.60;;
4102;SDS011;2065;49.790;9.620;2023-05-07T03:44:11;5.03;;;3.87;;
4102;SDS011;2065;49.790;9.620;2023-05-07T03:46:38;4.90;;;4.40;;
4102;SDS011;2065;49.790;9.620;2023-05-07T03:49:06;3.90;;;3.50;;
4102;SDS011;2065;49.790;9.620;2023-05-07T03:51:33;3.57;;;3.33;;
4102;SDS011;2065;49.790;9.620;2023-05-07T03:54:04;4.60;;;3.67;;
4102;SDS011;2065;49.790;9.620;2023-05-07T03:56:32;4.77;;;3.33;;
4102;SDS011;2065;49.790;9.620;2023-05-07T03:58:59;6.90;;;3.37;;
4102;SDS011;2065;49.790;9.620;2023-05-07T04:01:26;3.40;;;3.20;;
4102;SDS011;2065;49.790;9.620;2023-05-07T04:03:53;4.30;;;3.90;;
4102;SDS011;2065;49.790;9.620;2023-05-07T04:06:20;3.50;;;3.17;;
4102;SDS011;2065;49.790;9.620;2023-05-07T04:08:48;7.13;;;3.53;;
4102;SDS011;2065;49.790;9.620;2023-05-07T04:11:17;4.37;;;3.83;;
4102;SDS011;2065;49.790;9.620;2023-05-07T04:13:44;6.27;;;4.13;;
4102;SDS011;2065;49.790;9.620;2023-05-07T04:16:11;6.30;;;3.60;;
4102;SDS011;2065;49.790;9.620;2023-05-07T04:18:38;4.97;;;3.40;;
4102;SDS011;2065;49.790;9.620;2023-05-07T04:21:05;4.40;;;4.00;;
4102;SDS011;2065;49.790;9.620;2023-05-07T04:23:35;3.97;;;3.60;;
4102;SDS011;2065;49.790;9.620;2023-05-07T04:26:06;4.70;;;4.27;;
4102;SDS011;2065;49.790;9.620;2023-05-07T04:28:41;3.60;;;3.30;;
4102;SDS011;2065;49.790;9.620;2023-05-07T04:31:09;5.67;;;3.80;;
4102;SDS011;2065;49.790;9.620;2023-05-07T04:33:37;3.80;;;3.50;;
4102;SDS011;2065;49.790;9.620;2023-05-07T04:36:07;4.47;;;3.90;;
4102;SDS011;2065;49.790;9.620;2023-05-07T04:38:41;5.57;;;4.00;;
4102;SDS011;2065;49.790;9.620;2023-05-07T04:41:08;5.40;;;3.50;;
4102;SDS011;2065;49.790;9.620;2023-05-07T04:43:39;3.80;;;3.20;;
4102;SDS011;2065;49.790;9.620;2023-05-07T04:46:08;5.00;;;4.27;;
4102;SDS011;2065;49.790;9.620;2023-05-07T04:48:35;4.20;;;3.77;;
4102;SDS011;2065;49.790;9.620;2023-05-07T04:51:04;4.33;;;3.33;;
4102;SDS011;2065;49.790;9.620;2023-05-07T04:53:32;3.80;;;3.40;;
4102;SDS011;2065;49.790;9.620;2023-05-07T04:55:59;4.10;;;3.70;;
4102;SDS011;2065;49.790;9.620;2023-05-07T04:58:32;4.83;;;3.80;;
4102;SDS011;2065;49.790;9.620;2023-05-07T05:00:59;3.80;;;3.40;;
4102;SDS011;2065;49.790;9.620;2023-05-07T05:03:28;6.20;;;4.33;;
4102;SDS011;2065;49.790;9.620;2023-05-07T05:05:56;5.13;;;4.40;;
4102;SDS011;2065;49.790;9.620;2023-05-07T05:08:26;5.03;;;4.53;;
4102;SDS011;2065;49.790;9.620;2023-05-07T05:10:53;4.93;;;4.40;;
4102;SDS011;2065;49.790;9.620;2023-05-07T05:13:21;9.80;;;5.30;;
4102;SDS011;2065;49.790;9.620;2023-05-07T05:15:48;5.13;;;4.63;;
4102;SDS011;2065;49.790;9.620;2023-05-07T05:18:15;6.43;;;4.50;;
4102;SDS011;2065;49.790;9.620;2023-05-07T05:20:43;5.03;;;4.53;;
4102;SDS011;2065;49.790;9.620;2023-05-07T05:23:11;5.73;;;4.20;;
4102;SDS011;2065;49.790;9.620;2023-05-07T05:25:38;6.53;;;4.73;;
4102;SDS011;2065;49.790;9.620;2023-05-07T05:28:07;5.17;;;4.77;;
4102;SDS011;2065;49.790;9.620;2023-05-07T05:30:34;4.80;;;4.37;;
4102;SDS011;2065;49.790;9.620;2023-05-07T05:33:01;4.37;;;3.97;;
4102;SDS011;2065;49.790;9.620;2023-05-07T05:35:29;4.60;;;4.20;;
4102;SDS011;2065;49.790;9.620;2023-05-07T05:37:59;5.27;;;4.20;;
4102;SDS011;2065;49.790;9.620;2023-05-07T05:40:26;5.10;;;4.70;;
4102;SDS011;2065;49.790;9.620;2023-05-07T05:42:54;5.57;;;4.50;;
4102;SDS011;2065;49.790;9.620;2023-05-07T05:45:21;5.27;;;4.60;;
4102;SDS011;2065;49.790;9.620;2023-05-07T05:47:49;6.40;;;4.73;;
4102;SDS011;2065;49.790;9.620;2023-05-07T05:50:17;5.57;;;5.03;;
4102;SDS011;2065;49.790;9.620;2023-05-07T05:52:44;6.40;;;4.80;;
4102;SDS011;2065;49.790;9.620;2023-05-07T05:55:12;5.17;;;4.77;;
4102;SDS011;2065;49.790;9.620;2023-05-07T05:57:40;5.27;;;4.63;;
4102;SDS011;2065;49.790;9.620;2023-05-07T06:00:08;4.60;;;4.20;;
4102;SDS011;2065;49.790;9.620;2023-05-07T06:02:44;5.67;;;4.50;;
4102;SDS011;2065;49.790;9.620;2023-05-07T06:05:14;6.20;;;5.33;;
4102;SDS011;2065;49.790;9.620;2023-05-07T06:07:42;5.70;;;5.10;;
4102;SDS011;2065;49.790;9.620;2023-05-07T06:10:09;7.03;;;5.53;;
4102;SDS011;2065;49.790;9.620;2023-05-07T06:12:37;7.00;;;5.80;;
4102;SDS011;2065;49.790;9.620;2023-05-07T06:15:05;7.63;;;5.80;;
4102;SDS011;2065;49.790;9.620;2023-05-07T06:17:33;5.73;;;5.13;;
4102;SDS011;2065;49.790;9.620;2023-05-07T06:20:01;5.30;;;4.80;;
4102;SDS011;2065;49.790;9.620;2023-05-07T06:22:28;9.43;;;5.57;;
4102;SDS011;2065;49.790;9.620;2023-05-07T06:24:55;7.10;;;5.80;;
4102;SDS011;2065;49.790;9.620;2023-05-07T06:27:23;6.63;;;5.63;;
4102;SDS011;2065;49.790;9.620;2023-05-07T06:29:52;7.07;;;6.40;;
4102;SDS011;2065;49.790;9.620;2023-05-07T06:32:20;5.43;;;4.90;;
4102;SDS011;2065;49.790;9.620;2023-05-07T06:34:48;7.63;;;6.77;;
4102;SDS011;2065;49.790;9.620;2023-05-07T06:37:15;7.30;;;6.60;;
4102;SDS011;2065;49.790;9.620;2023-05-07T06:39:51;8.60;;;7.00;;
4102;SDS011;2065;49.790;9.620;2023-05-07T06:42:19;7.57;;;6.20;;
4102;SDS011;2065;49.790;9.620;2023-05-07T06:44:47;10.50;;;6.90;;
4102;SDS011;2065;49.790;9.620;2023-05-07T06:47:17;8.33;;;6.33;;
4102;SDS011;2065;49.790;9.620;2023-05-07T06:49:49;6.33;;;5.73;;
4102;SDS011;2065;49.790;9.620;2023-05-07T06:52:19;7.23;;;6.53;;
4102;SDS011;2065;49.790;9.620;2023-05-07T06:54:48;9.33;;;6.73;;
4102;SDS011;2065;49.790;9.620;2023-05-07T06:57:17;8.00;;;7.20;;
4102;SDS011;2065;49.790;9.620;2023-05-07T06:59:44;7.33;;;6.63;;
4102;SDS011;2065;49.790;9.620;2023-05-07T07:02:11;7.07;;;6.37;;
4102;SDS011;2065;49.790;9.620;2023-05-07T07:04:40;7.57;;;6.87;;
4102;SDS011;2065;49.790;9.620;2023-05-07T07:07:09;10.40;;;9.40;;
4102;SDS011;2065;49.790;9.620;2023-05-07T07:09:38;8.77;;;6.80;;
4102;SDS011;2065;49.790;9.620;2023-05-07T07:12:06;8.17;;;6.57;;
4102;SDS011;2065;49.790;9.620;2023-05-07T07:14:36;9.43;;;7.63;;
4102;SDS011;2065;49.790;9.620;2023-05-07T07:17:03;7.10;;;6.40;;
4102;SDS011;2065;49.790;9.620;2023-05-07T07:19:31;7.77;;;6.63;;
4102;SDS011;2065;49.790;9.620;2023-05-07T07:22:00;9.20;;;7.80;;
4102;SDS011;2065;49.790;9.620;2023-05-07T07:24:27;8.37;;;6.57;;
4102;SDS011;2065;49.790;9.620;2023-05-07T07:26:58;7.00;;;6.30;;
4102;SDS011;2065;49.790;9.620;2023-05-07T07:29:26;9.10;;;7.33;;
4102;SDS011;2065;49.790;9.620;2023-05-07T07:31:53;7.87;;;7.10;;
4102;SDS011;2065;49.790;9.620;2023-05-07T07:34:20;8.07;;;7.27;;
4102;SDS011;2065;49.790;9.620;2023-05-07T07:36:48;9.43;;;6.80;;
4102;SDS011;2065;49.790;9.620;2023-05-07T07:39:18;7.70;;;6.57;;
4102;SDS011;2065;49.790;9.620;2023-05-07T07:41:49;7.03;;;6.10;;
4102;SDS011;2065;49.790;9.620;2023-05-07T07:44:17;9.10;;;7.00;;
4102;SDS011;2065;49.790;9.620;2023-05-07T07:46:49;6.90;;;6.13;;
4102;SDS011;2065;49.790;9.620;2023-05-07T07:49:17;7.27;;;6.63;;
4102;SDS011;2065;49.790;9.620;2023-05-07T07:51:44;7.57;;;6.53;;
4102;SDS011;2065;49.790;9.620;2023-05-07T07:54:12;7.33;;;6.60;;
4102;SDS011;2065;49.790;9.620;2023-05-07T07:56:41;8.50;;;7.60;;
4102;SDS011;2065;49.790;9.620;2023-05-07T07:59:10;6.93;;;6.10;;
4102;SDS011;2065;49.790;9.620;2023-05-07T08:01:39;7.70;;;6.97;;
4102;SDS011;2065;49.790;9.620;2023-05-07T08:04:07;6.83;;;6.20;;
4102;SDS011;2065;49.790;9.620;2023-05-07T08:06:37;7.03;;;6.43;;
4102;SDS011;2065;49.790;9.620;2023-05-07T08:09:05;7.50;;;6.80;;
4102;SDS011;2065;49.790;9.620;2023-05-07T08:11:32;7.90;;;7.10;;
4102;SDS011;2065;49.790;9.620;2023-05-07T08:14:01;7.53;;;6.87;;
4102;SDS011;2065;49.790;9.620;2023-05-07T08:16:28;7.60;;;6.80;;
4102;SDS011;2065;49.790;9.620;2023-05-07T08:18:55;15.00;;;6.70;;
4102;SDS011;2065;49.790;9.620;2023-05-07T08:21:22;8.93;;;6.80;;
4102;SDS011;2065;49.790;9.620;2023-05-07T08:23:50;7.03;;;6.43;;
4102;SDS011;2065;49.790;9.620;2023-05-07T08:26:17;8.67;;;6.90;;
4102;SDS011;2065;49.790;9.620;2023-05-07T08:28:44;10.83;;;7.10;;
4102;SDS011;2065;49.790;9.620;2023-05-07T08:31:12;6.87;;;6.17;;
4102;SDS011;2065;49.790;9.620;2023-05-07T08:33:42;7.10;;;6.37;;
4102;SDS011;2065;49.790;9.620;2023-05-07T08:36:10;10.10;;;6.80;;
4102;SDS011;2065;49.790;9.620;2023-05-07T08:38:37;8.53;;;7.17;;
4102;SDS011;2065;49.790;9.620;2023-05-07T08:41:06;8.43;;;7.63;;
4102;SDS011;2065;49.790;9.620;2023-05-07T08:43:36;8.70;;;7.57;;
4102;SDS011;2065;49.790;9.620;2023-05-07T08:46:08;7.03;;;6.33;;
4102;SDS011;2065;49.790;9.620;2023-05-07T08:48:41;7.73;;;6.97;;
4102;SDS011;2065;49.790;9.620;2023-05-07T08:51:15;7.10;;;6.40;;
4102;SDS011;2065;49.790;9.620;2023-05-07T08:53:43;9.07;;;6.87;;
4102;SDS011;2065;49.790;9.620;2023-05-07T08:56:15;8.30;;;7.17;;
4102;SDS011;2065;49.790;9.620;2023-05-07T08:58:43;9.37;;;7.73;;
4102;SDS011;2065;49.790;9.620;2023-05-07T09:01:13;7.63;;;6.40;;
4102;SDS011;2065;49.790;9.620;2023-05-07T09:03:45;7.80;;;6.73;;
4102;SDS011;2065;49.790;9.620;2023-05-07T09:06:14;8.63;;;7.70;;
4102;SDS011;2065;49.790;9.620;2023-05-07T09:08:44;9.70;;;7.13;;
4102;SDS011;2065;49.790;9.620;2023-05-07T09:11:16;11.87;;;9.20;;
4102;SDS011;2065;49.790;9.620;2023-05-07T09:13:46;13.37;;;9.23;;
4102;SDS011;2065;49.790;9.620;2023-05-07T09:16:14;15.23;;;8.20;;
4102;SDS011;2065;49.790;9.620;2023-05-07T09:18:45;9.33;;;7.83;;
4102;SDS011;2065;49.790;9.620;2023-05-07T09:21:14;10.37;;;7.80;;
4102;SDS011;2065;49.790;9.620;2023-05-07T09:23:42;8.37;;;7.50;;
4102;SDS011;2065;49.790;9.620;2023-05-07T09:26:10;9.67;;;7.83;;
4102;SDS011;2065;49.790;9.620;2023-05-07T09:28:39;12.03;;;8.23;;
4102;SDS011;2065;49.790;9.620;2023-05-07T09:31:09;12.43;;;8.70;;
4102;SDS011;2065;49.790;9.620;2023-05-07T09:33:37;8.70;;;7.77;;
4102;SDS011;2065;49.790;9.620;2023-05-07T09:36:08;7.63;;;6.53;;
4102;SDS011;2065;49.790;9.620;2023-05-07T09:38:38;8.80;;;7.23;;
4102;SDS011;2065;49.790;9.620;2023-05-07T09:41:05;6.83;;;6.27;;
4102;SDS011;2065;49.790;9.620;2023-05-07T09:43:40;8.30;;;7.50;;
4102;SDS011;2065;49.790;9.620;2023-05-07T09:46:11;9.63;;;8.10;;
4102;SDS011;2065;49.790;9.620;2023-05-07T09:48:43;7.97;;;7.13;;
4102;SDS011;2065;49.790;9.620;2023-05-07T09:51:14;8.30;;;7.10;;
4102;SDS011;2065;49.790;9.620;2023-05-07T09:53:45;8.63;;;7.57;;
4102;SDS011;2065;49.790;9.620;2023-05-07T09:56:13;7.40;;;6.70;;
4102;SDS011;2065;49.790;9.620;2023-05-07T09:58:41;7.07;;;6.43;;
4102;SDS011;2065;49.790;9.620;2023-05-07T10:01:11;10.63;;;6.90;;
4102;SDS011;2065;49.790;9.620;2023-05-07T10:03:40;10.97;;;7.10;;
4102;SDS011;2065;49.790;9.620;2023-05-07T10:06:09;9.90;;;7.73;;
4102;SDS011;2065;49.790;9.620;2023-05-07T10:08:38;7.60;;;6.90;;
4102;SDS011;2065;49.790;9.620;2023-05-07T10:11:07;6.90;;;6.30;;
4102;SDS011;2065;49.790;9.620;2023-05-07T10:13:36;10.97;;;6.90;;
4102;SDS011;2065;49.790;9.620;2023-05-07T10:16:05;7.40;;;6.73;;
4102;SDS011;2065;49.790;9.620;2023-05-07T10:18:39;8.10;;;6.87;;
4102;SDS011;2065;49.790;9.620;2023-05-07T10:21:13;8.50;;;7.60;;
4102;SDS011;2065;49.790;9.620;2023-05-07T10:23:48;7.93;;;7.13;;
4102;SDS011;2065;49.790;9.620;2023-05-07T10:26:18;8.40;;;6.97;;
4102;SDS011;2065;49.790;9.620;2023-05-07T10:28:49;9.63;;;7.10;;
4102;SDS011;2065;49.790;9.620;2023-05-07T10:31:23;7.77;;;6.03;;
4102;SDS011;2065;49.790;9.620;2023-05-07T10:34:06;7.17;;;6.17;;
4102;SDS011;2065;49.790;9.620;2023-05-07T10:36:35;6.40;;;5.77;;
4102;SDS011;2065;49.790;9.620;2023-05-07T10:39:07;8.17;;;5.93;;
4102;SDS011;2065;49.790;9.620;2023-05-07T10:41:39;6.33;;;5.83;;
4102;SDS011;2065;49.790;9.620;2023-05-07T10:44:07;7.77;;;7.07;;
4102;SDS011;2065;49.790;9.620;2023-05-07T10:46:35;12.30;;;7.37;;
4102;SDS011;2065;49.790;9.620;2023-05-07T10:49:11;11.23;;;6.67;;
4102;SDS011;2065;49.790;9.620;2023-05-07T10:51:44;7.30;;;6.10;;
4102;SDS011;2065;49.790;9.620;2023-05-07T10:54:28;9.50;;;7.07;;
4102;SDS011;2065;49.790;9.620;2023-05-07T10:57:12;7.27;;;6.57;;
4102;SDS011;2065;49.790;9.620;2023-05-07T11:00:40;8.30;;;7.00;;
4102;SDS011;2065;49.790;9.620;2023-05-07T11:03:12;6.40;;;5.60;;
4102;SDS011;2065;49.790;9.620;2023-05-07T11:05:46;6.30;;;5.80;;
4102;SDS011;2065;49.790;9.620;2023-05-07T11:08:24;6.67;;;5.50;;
4102;SDS011;2065;49.790;9.620;2023-05-07T11:11:01;6.50;;;5.90;;
4102;SDS011;2065;49.790;9.620;2023-05-07T11:13:44;6.53;;;5.97;;
4102;SDS011;2065;49.790;9.620;2023-05-07T11:16:32;13.10;;;5.97;;
4102;SDS011;2065;49.790;9.620;2023-05-07T11:19:16;5.90;;;5.50;;
4102;SDS011;2065;49.790;9.620;2023-05-07T11:21:47;6.80;;;6.20;;
4102;SDS011;2065;49.790;9.620;2023-05-07T11:24:24;6.73;;;5.70;;
4102;SDS011;2065;49.790;9.620;2023-05-07T11:26:56;7.77;;;5.07;;
4102;SDS011;2065;49.790;9.620;2023-05-07T11:29:25;6.37;;;5.77;;
4102;SDS011;2065;49.790;9.620;2023-05-07T11:31:57;5.60;;;5.10;;
4102;SDS011;2065;49.790;9.620;2023-05-07T11:34:32;5.00;;;4.60;;
4102;SDS011;2065;49.790;9.620;2023-05-07T11:36:59;5.10;;;4.70;;
4102;SDS011;2065;49.790;9.620;2023-05-07T11:39:43;5.93;;;5.33;;
4102;SDS011;2065;49.790;9.620;2023-05-07T11:42:24;4.87;;;4.47;;
4102;SDS011;2065;49.790;9.620;2023-05-07T11:44:52;5.60;;;5.10;;
4102;SDS011;2065;49.790;9.620;2023-05-07T11:47:19;6.07;;;5.30;;
4102;SDS011;2065;49.790;9.620;2023-05-07T11:49:49;6.87;;;4.20;;
4102;SDS011;2065;49.790;9.620;2023-05-07T11:52:18;4.87;;;4.47;;
4102;SDS011;2065;49.790;9.620;2023-05-07T11:54:48;4.40;;;4.07;;
4102;SDS011;2065;49.790;9.620;2023-05-07T11:57:16;6.30;;;4.57;;
4102;SDS011;2065;49.790;9.620;2023-05-07T11:59:43;6.00;;;5.30;;
4102;SDS011;2065;49.790;9.620;2023-05-07T12:02:10;4.67;;;4.27;;
4102;SDS011;2065;49.790;9.620;2023-05-07T12:04:39;4.27;;;3.93;;
4102;SDS011;2065;49.790;9.620;2023-05-07T12:07:12;5.43;;;5.00;;
4102;SDS011;2065;49.790;9.620;2023-05-07T12:09:39;5.73;;;4.33;;
4102;SDS011;2065;49.790;9.620;2023-05-07T12:12:06;5.17;;;4.67;;
4102;SDS011;2065;49.790;9.620;2023-05-07T12:14:37;4.40;;;4.03;;
4102;SDS011;2065;49.790;9.620;2023-05-07T12:17:04;6.10;;;4.03;;
4102;SDS011;2065;49.790;9.620;2023-05-07T12:19:32;4.40;;;4.00;;
4102;SDS011;2065;49.790;9.620;2023-05-07T12:22:01;4.97;;;4.50;;
4102;SDS011;2065;49.790;9.620;2023-05-07T12:24:30;4.40;;;4.00;;
4102;SDS011;2065;49.790;9.620;2023-05-07T12:27:09;4.53;;;4.23;;
4102;SDS011;2065;49.790;9.620;2023-05-07T12:29:36;4.70;;;4.17;;
4102;SDS011;2065;49.790;9.620;2023-05-07T12:32:04;4.53;;;4.10;;
4102;SDS011;2065;49.790;9.620;2023-05-07T12:34:32;4.00;;;3.60;;
4102;SDS011;2065;49.790;9.620;2023-05-07T12:37:01;4.50;;;3.80;;
4102;SDS011;2065;49.790;9.620;2023-05-07T12:39:30;6.33;;;4.00;;
4102;SDS011;2065;49.790;9.620;2023-05-07T12:41:58;3.93;;;3.53;;
4102;SDS011;2065;49.790;9.620;2023-05-07T12:44:29;5.40;;;4.10;;
4102;SDS011;2065;49.790;9.620;2023-05-07T12:46:58;4.00;;;3.60;;
4102;SDS011;2065;49.790;9.620;2023-05-07T12:49:28;4.63;;;3.50;;
4102;SDS011;2065;49.790;9.620;2023-05-07T12:51:55;3.87;;;3.67;;
4102;SDS011;2065;49.790;9.620;2023-05-07T12:54:28;7.07;;;4.10;;
4102;SDS011;2065;49.790;9.620;2023-05-07T12:57:01;4.30;;;3.90;;
4102;SDS011;2065;49.790;9.620;2023-05-07T12:59:32;3.33;;;3.13;;
4102;SDS011;2065;49.790;9.620;2023-05-07T13:02:00;3.73;;;3.30;;
4102;SDS011;2065;49.790;9.620;2023-05-07T13:04:27;3.40;;;3.20;;
4102;SDS011;2065;49.790;9.620;2023-05-07T13:06:54;4.70;;;3.63;;
4102;SDS011;2065;49.790;9.620;2023-05-07T13:09:21;5.77;;;3.83;;
4102;SDS011;2065;49.790;9.620;2023-05-07T13:11:49;4.13;;;3.83;;
4102;SDS011;2065;49.790;9.620;2023-05-07T13:14:17;4.07;;;3.77;;
4102;SDS011;2065;49.790;9.620;2023-05-07T13:16:46;3.97;;;3.67;;
4102;SDS011;2065;49.790;9.620;2023-05-07T13:19:13;3.83;;;3.53;;
4102;SDS011;2065;49.790;9.620;2023-05-07T13:21:41;3.83;;;3.40;;
4102;SDS011;2065;49.790;9.620;2023-05-07T13:24:08;4.27;;;3.53;;
4102;SDS011;2065;49.790;9.620;2023-05-07T13:26:36;4.23;;;3.87;;
4102;SDS011;2065;49.790;9.620;2023-05-07T13:29:09;4.00;;;3.60;;
4102;SDS011;2065;49.790;9.620;2023-05-07T13:31:38;3.50;;;3.20;;
4102;SDS011;2065;49.790;9.620;2023-05-07T13:34:09;3.73;;;3.40;;
4102;SDS011;2065;49.790;9.620;2023-05-07T13:36:37;4.00;;;3.70;;
4102;SDS011;2065;49.790;9.620;2023-05-07T13:39:05;4.00;;;3.60;;
4102;SDS011;2065;49.790;9.620;2023-05-07T13:41:32;3.43;;;3.13;;
4102;SDS011;2065;49.790;9.620;2023-05-07T13:43:59;4.00;;;3.70;;
4102;SDS011;2065;49.790;9.620;2023-05-07T13:46:31;3.60;;;3.30;;
4102;SDS011;2065;49.790;9.620;2023-05-07T13:49:01;4.47;;;4.07;;
4102;SDS011;2065;49.790;9.620;2023-05-07T13:51:37;4.00;;;3.50;;
4102;SDS011;2065;49.790;9.620;2023-05-07T13:54:11;4.23;;;3.03;;
4102;SDS011;2065;49.790;9.620;2023-05-07T13:56:42;3.77;;;3.47;;
4102;SDS011;2065;49.790;9.620;2023-05-07T13:59:15;3.43;;;3.13;;
4102;SDS011;2065;49.790;9.620;2023-05-07T14:01:44;3.37;;;3.07;;
4102;SDS011;2065;49.790;9.620;2023-05-07T14:04:12;4.07;;;3.23;;
4102;SDS011;2065;49.790;9.620;2023-05-07T14:06:39;4.37;;;3.90;;
4102;SDS011;2065;49.790;9.620;2023-05-07T14:09:07;3.43;;;3.13;;
4102;SDS011;2065;49.790;9.620;2023-05-07T14:11:34;3.63;;;3.20;;
4102;SDS011;2065;49.790;9.620;2023-05-07T14:14:01;3.23;;;2.90;;
4102;SDS011;2065;49.790;9.620;2023-05-07T14:16:28;3.23;;;2.93;;
4102;SDS011;2065;49.790;9.620;2023-05-07T14:18:57;3.67;;;2.80;;
4102;SDS011;2065;49.790;9.620;2023-05-07T14:21:24;3.50;;;3.20;;
4102;SDS011;2065;49.790;9.620;2023-05-07T14:23:51;3.70;;;3.37;;
4102;SDS011;2065;49.790;9.620;2023-05-07T14:26:18;3.23;;;2.90;;
4102;SDS011;2065;49.790;9.620;2023-05-07T14:28:48;3.30;;;3.00;;
4102;SDS011;2065;49.790;9.620;2023-05-07T14:31:15;3.77;;;3.23;;
4102;SDS011;2065;49.790;9.620;2023-05-07T14:33:42;3.53;;;3.27;;
4102;SDS011;2065;49.790;9.620;2023-05-07T14:36:10;3.70;;;3.40;;
4102;SDS011;2065;49.790;9.620;2023-05-07T14:38:37;5.70;;;3.13;;
4102;SDS011;2065;49.790;9.620;2023-05-07T14:41:05;3.43;;;3.23;;
4102;SDS011;2065;49.790;9.620;2023-05-07T14:43:32;3.53;;;3.23;;
4102;SDS011;2065;49.790;9.620;2023-05-07T14:45:59;3.13;;;2.93;;
4102;SDS011;2065;49.790;9.620;2023-05-07T14:48:26;3.67;;;3.30;;
4102;SDS011;2065;49.790;9.620;2023-05-07T14:50:53;5.40;;;3.67;;
4102;SDS011;2065;49.790;9.620;2023-05-07T14:53:21;8.20;;;7.50;;
4102;SDS011;2065;49.790;9.620;2023-05-07T14:55:49;3.60;;;3.30;;
4102;SDS011;2065;49.790;9.620;2023-05-07T14:58:16;5.40;;;3.47;;
4102;SDS011;2065;49.790;9.620;2023-05-07T15:00:43;3.83;;;3.43;;
4102;SDS011;2065;49.790;9.620;2023-05-07T15:03:10;3.43;;;3.23;;
4102;SDS011;2065;49.790;9.620;2023-05-07T15:05:41;3.30;;;3.10;;
4102;SDS011;2065;49.790;9.620;2023-05-07T15:08:08;3.33;;;3.13;;
4102;SDS011;2065;49.790;9.620;2023-05-07T15:10:37;2.70;;;2.50;;
4102;SDS011;2065;49.790;9.620;2023-05-07T15:13:06;3.60;;;2.70;;
4102;SDS011;2065;49.790;9.620;2023-05-07T15:15:34;3.07;;;2.87;;
4102;SDS011;2065;49.790;9.620;2023-05-07T15:18:01;3.80;;;3.50;;
4102;SDS011;2065;49.790;9.620;2023-05-07T15:20:29;3.50;;;3.20;;
4102;SDS011;2065;49.790;9.620;2023-05-07T15:22:56;4.20;;;3.80;;
4102;SDS011;2065;49.790;9.620;2023-05-07T15:25:23;3.87;;;3.63;;
4102;SDS011;2065;49.790;9.620;2023-05-07T15:27:52;3.23;;;2.93;;